Time;durP1;ratioP1;P1;durP2;ratioP2;P2;SDS_P1;SDS_P2;PMS_P1;PMS_P2;Temp;Humidity;BMP_temperature;BMP_pressure;BME280_temperature;BME280_humidity;BME280_pressure;Samples;Min_cycle;Max_cycle;Signal;HPM_P1;HPM_P2
2022/09/01 00:00:29;;;;;;;1.88;1.78;;;;;;;23.35;48.53;100355.81;457330;116;922564;-73
2022/09/01 00:01:33;;;;;;;2.49;1.70;;;;;;;23.34;48.67;100357.77;457299;116;922519;-73
2022/09/01 00:02:36;;;;;;;1.75;1.65;;;;;;;23.33;48.84;100353.33;457411;116;922657;-73
2022/09/01 00:03:39;;;;;;;3.81;1.67;;;;;;;23.34;48.88;100357.77;457480;115;922996;-73
2022/09/01 00:04:44;;;;;;;2.16;1.85;;;;;;;23.35;48.88;100364.16;457284;115;922586;-73
2022/09/01 00:05:49;;;;;;;1.81;1.71;;;;;;;23.34;48.90;100360.55;457403;115;923006;-74
2022/09/01 00:06:54;;;;;;;1.96;1.84;;;;;;;23.33;48.68;100363.63;457332;116;922622;-72
2022/09/01 00:07:57;;;;;;;1.94;1.84;;;;;;;23.32;48.89;100365.61;457300;115;922739;-72
2022/09/01 00:09:03;;;;;;;2.90;1.66;;;;;;;23.32;48.88;100376.73;457478;115;922692;-72
2022/09/01 00:10:08;;;;;;;2.03;1.87;;;;;;;23.31;48.86;100372.30;457321;116;922545;-73
2022/09/01 00:11:11;;;;;;;1.89;1.78;;;;;;;23.31;48.79;100374.25;457309;116;923226;-73
2022/09/01 00:12:14;;;;;;;1.71;1.61;;;;;;;23.28;48.69;100379.28;457461;115;922805;-73
2022/09/01 00:13:17;;;;;;;2.51;2.20;;;;;;;23.28;48.76;100367.33;457495;115;922603;-72
2022/09/01 00:14:24;;;;;;;1.86;1.74;;;;;;;23.27;48.73;100376.80;457490;116;923089;-72
2022/09/01 00:15:29;;;;;;;2.31;2.15;;;;;;;23.25;48.68;100367.95;457445;115;922699;-72
2022/09/01 00:16:33;;;;;;;2.73;2.19;;;;;;;23.23;48.71;100368.24;457498;116;922985;-72
2022/09/01 00:17:36;;;;;;;2.38;2.06;;;;;;;23.21;48.76;100364.12;457430;116;930348;-72
2022/09/01 00:18:41;;;;;;;3.87;2.16;;;;;;;23.21;48.78;100369.69;457591;116;922584;-72
2022/09/01 00:19:44;;;;;;;2.34;2.02;;;;;;;23.19;48.51;100366.37;457450;116;923085;-72
2022/09/01 00:20:47;;;;;;;2.52;1.99;;;;;;;23.19;48.51;100366.37;457533;116;922770;-73
2022/09/01 00:21:50;;;;;;;5.99;2.10;;;;;;;23.18;48.86;100367.50;457509;116;922560;-72
2022/09/01 00:22:54;;;;;;;2.15;1.74;;;;;;;23.17;48.92;100365.84;457621;116;922591;-72
2022/09/01 00:23:59;;;;;;;2.46;1.81;;;;;;;23.17;48.90;100363.89;457453;116;922494;-72
2022/09/01 00:25:03;;;;;;;2.21;1.89;;;;;;;23.16;48.96;100362.23;457329;116;930315;-72
2022/09/01 00:26:06;;;;;;;2.65;1.58;;;;;;;23.15;49.08;100363.39;457510;116;922913;-72
2022/09/01 00:27:09;;;;;;;2.54;2.21;;;;;;;23.15;49.06;100363.39;457553;116;922603;-72
2022/09/01 00:28:13;;;;;;;2.85;1.96;;;;;;;23.16;49.04;100364.19;457555;116;922543;-72
2022/09/01 00:29:16;;;;;;;2.71;2.17;;;;;;;23.14;49.05;100364.52;457545;116;922535;-72
2022/09/01 00:30:21;;;;;;;2.67;1.87;;;;;;;23.13;49.13;100362.85;450218;116;923727;-72
2022/09/01 00:31:24;;;;;;;2.00;1.80;;;;;;;23.14;49.16;100363.68;455301;115;922541;-72
2022/09/01 00:32:27;;;;;;;1.79;1.69;;;;;;;23.13;49.12;100362.85;457346;115;922600;-72
2022/09/01 00:33:32;;;;;;;2.47;1.80;;;;;;;23.14;49.35;100372.03;457307;115;923092;-72
2022/09/01 00:34:35;;;;;;;2.05;1.88;;;;;;;23.14;49.38;100374.81;449450;118;922643;-72
2022/09/01 00:35:38;;;;;;;1.77;1.66;;;;;;;23.15;49.54;100373.69;449517;118;922605;-72
2022/09/01 00:36:41;;;;;;;2.69;2.31;;;;;;;23.15;49.51;100376.47;449536;117;922533;-72
2022/09/01 00:37:44;;;;;;;2.38;2.11;;;;;;;23.13;49.53;100376.76;449599;117;922606;-72
2022/09/01 00:38:49;;;;;;;1.62;1.52;;;;;;;23.12;49.56;100379.84;449562;117;923162;-72
2022/09/01 00:39:52;;;;;;;1.81;1.71;;;;;;;23.12;49.61;100371.48;449437;118;922961;-72
2022/09/01 00:40:55;;;;;;;1.84;1.74;;;;;;;23.12;49.69;100365.93;449552;117;923441;-72
2022/09/01 00:41:59;;;;;;;3.52;2.01;;;;;;;23.13;49.77;100373.15;449574;117;922628;-72
2022/09/01 00:43:18;;;;;;;2.10;2.00;;;;;;;23.12;49.83;100369.54;449466;118;922579;-72
2022/09/01 00:44:26;;;;;;;2.62;1.68;;;;;;;23.13;49.82;100373.15;447949;118;922589;-72
2022/09/01 00:45:31;;;;;;;2.26;1.94;;;;;;;23.14;49.83;100377.59;449400;117;923109;-72
2022/09/01 00:46:37;;;;;;;2.79;1.80;;;;;;;23.15;49.93;100376.47;449609;117;922604;-72
2022/09/01 00:47:42;;;;;;;3.94;1.93;;;;;;;23.14;50.10;100375.64;449434;117;922901;-72
2022/09/01 00:48:55;;;;;;;2.07;1.88;;;;;;;23.15;50.02;100370.91;449547;117;922532;-72
2022/09/01 00:49:58;;;;;;;1.75;1.65;;;;;;;23.14;50.03;100378.42;449381;118;923063;-72
2022/09/01 00:51:02;;;;;;;3.27;1.96;;;;;;;23.14;50.09;100377.59;449548;117;922574;-72
2022/09/01 00:52:11;;;;;;;2.03;1.93;;;;;;;23.14;50.00;100372.03;449492;118;923292;-72
2022/09/01 00:53:15;;;;;;;2.11;1.88;;;;;;;23.13;50.05;100375.93;449311;117;930510;-73
2022/09/01 00:54:24;;;;;;;1.76;1.66;;;;;;;23.12;50.05;100379.84;449583;118;922733;-72
2022/09/01 00:55:31;;;;;;;2.06;1.71;;;;;;;23.12;50.01;100382.62;449398;118;922607;-71
2022/09/01 00:56:38;;;;;;;3.11;1.97;;;;;;;23.10;50.16;100379.33;449394;117;922543;-72
2022/09/01 00:57:42;;;;;;;2.78;1.99;;;;;;;23.09;50.29;100377.67;449386;118;922752;-72
2022/09/01 00:58:45;;;;;;;4.04;1.74;;;;;;;23.08;50.33;100384.36;454313;116;922750;-73
2022/09/01 00:59:55;;;;;;;2.31;1.95;;;;;;;23.07;50.31;100377.97;457463;116;922558;-72
2022/09/01 01:00:58;;;;;;;2.26;2.08;;;;;;;23.07;50.35;100379.92;456730;115;922882;-72
2022/09/01 01:02:02;;;;;;;3.73;2.14;;;;;;;23.06;50.40;100376.31;457344;115;922566;-73
2022/09/01 01:03:11;;;;;;;2.32;2.12;;;;;;;23.05;50.48;100376.60;457355;116;930390;-73
2022/09/01 01:04:15;;;;;;;2.66;1.81;;;;;;;23.05;50.49;100374.66;456575;116;923069;-72
2022/09/01 01:05:20;;;;;;;2.89;2.06;;;;;;;23.03;50.60;100373.31;457271;116;922900;-72
2022/09/01 01:06:28;;;;;;;2.85;1.96;;;;;;;23.02;50.68;100369.70;457120;115;922580;-72
2022/09/01 01:07:37;;;;;;;1.96;1.78;;;;;;;23.02;50.72;100377.22;456954;115;922799;-72
2022/09/01 01:08:48;;;;;;;2.79;1.72;;;;;;;23.01;50.72;100372.78;457084;115;922568;-72
2022/09/01 01:09:47;;;;;;;2.43;1.92;;;;;;;23.00;50.77;100371.12;456771;115;923148;-72
2022/09/01 01:10:50;;;;;;;2.22;2.02;;;;;;;22.99;50.81;100364.73;457303;116;922566;-72
2022/09/01 01:11:56;;;;;;;2.36;2.16;;;;;;;22.98;50.70;100367.84;457334;116;930319;-72
2022/09/01 01:13:03;;;;;;;5.74;1.77;;;;;;;22.95;50.75;100366.48;457154;116;922557;-72
2022/09/01 01:14:14;;;;;;;3.29;2.38;;;;;;;22.93;50.93;100363.19;457027;115;922584;-72
2022/09/01 01:15:18;;;;;;;2.95;2.09;;;;;;;22.92;50.91;100369.05;457173;116;923320;-73
2022/09/01 01:16:24;;;;;;;3.24;2.17;;;;;;;22.91;50.92;100370.17;457274;116;922897;-72
2022/09/01 01:17:28;;;;;;;2.28;2.08;;;;;;;22.88;50.82;100366.85;457205;116;922661;-70
2022/09/01 01:18:31;;;;;;;3.98;2.02;;;;;;;22.84;50.84;100365.81;457385;116;922496;-72
2022/09/01 01:24:23;;;;;;;2.41;1.99;;;;;;;22.79;51.16;100373.40;457306;116;923101;-73
2022/09/01 01:25:32;;;;;;;3.60;2.24;;;;;;;22.77;51.27;100373.69;450132;117;923302;-72
2022/09/01 01:26:36;;;;;;;2.33;2.19;;;;;;;22.76;51.43;100379.58;450955;116;923222;-73
2022/09/01 01:27:42;;;;;;;5.79;2.04;;;;;;;22.76;51.52;100377.62;457241;116;923045;-73
2022/09/01 01:28:45;;;;;;;2.94;2.33;;;;;;;22.76;51.54;100372.06;457140;116;922596;-73
2022/09/01 01:29:52;;;;;;;2.74;2.42;;;;;;;22.76;51.53;100371.23;454611;116;923157;-73
2022/09/01 01:31:05;;;;;;;3.32;2.14;;;;;;;22.75;51.57;100370.41;451529;116;922617;-73
2022/09/01 01:32:11;;;;;;;2.88;2.47;;;;;;;22.76;51.54;100366.50;457146;115;922529;-73
2022/09/01 01:33:14;;;;;;;3.75;2.62;;;;;;;22.76;51.57;100366.50;457152;115;922901;-73
2022/09/01 01:34:20;;;;;;;3.65;2.68;;;;;;;22.76;51.60;100360.95;455354;116;922663;-70
2022/09/01 01:35:23;;;;;;;4.21;2.61;;;;;;;22.76;51.63;100362.89;457719;113;923149;-73
2022/09/01 01:36:35;;;;;;;4.88;2.55;;;;;;;22.76;51.69;100365.67;466404;113;922550;-73
2022/09/01 01:37:44;;;;;;;3.01;2.73;;;;;;;22.75;51.73;100370.41;466299;113;922639;-73
2022/09/01 01:38:49;;;;;;;3.77;2.38;;;;;;;22.74;51.78;100371.53;466274;113;923074;-73
2022/09/01 01:39:52;;;;;;;3.65;2.55;;;;;;;22.73;51.89;100367.09;466406;113;922477;-72
2022/09/01 01:40:55;;;;;;;4.06;3.19;;;;;;;22.72;52.05;100364.60;466517;113;922528;-72
2022/09/01 01:41:59;;;;;;;3.09;2.75;;;;;;;22.72;52.02;100370.16;466406;113;923465;-72
2022/09/01 01:43:04;;;;;;;4.11;3.08;;;;;;;22.72;52.08;100367.38;466553;113;923081;-72
2022/09/01 01:44:10;;;;;;;4.72;2.53;;;;;;;22.72;52.11;100367.38;466265;113;922519;-72
2022/09/01 01:45:18;;;;;;;3.73;2.87;;;;;;;22.72;52.15;100370.98;456600;116;922588;-72
2022/09/01 01:46:22;;;;;;;3.32;2.99;;;;;;;22.71;52.18;100363.80;457698;113;923442;-73
2022/09/01 01:47:26;;;;;;;2.85;2.65;;;;;;;22.70;52.13;100373.23;466476;113;922590;-73
2022/09/01 01:48:33;;;;;;;3.21;2.98;;;;;;;22.69;52.25;100365.19;466467;113;923337;-73
2022/09/01 01:49:35;;;;;;;4.78;3.06;;;;;;;22.68;52.27;100371.86;466228;113;922923;-73
2022/09/01 01:50:38;;;;;;;3.45;2.94;;;;;;;22.66;52.27;100369.37;466440;113;922551;-72
2022/09/01 01:51:44;;;;;;;7.78;3.19;;;;;;;22.65;52.37;100364.14;466517;113;922515;-73
2022/09/01 01:52:47;;;;;;;3.69;3.20;;;;;;;22.62;52.44;100365.55;466312;113;922531;-72
2022/09/01 01:53:54;;;;;;;5.30;2.84;;;;;;;22.63;52.53;100366.37;465517;113;922594;-73
2022/09/01 01:54:57;;;;;;;2.84;2.64;;;;;;;22.63;52.55;100369.98;466447;113;922502;-73
2022/09/01 01:56:02;;;;;;;3.24;2.93;;;;;;;22.64;52.60;100363.31;456685;116;922566;-72
2022/09/01 01:57:07;;;;;;;3.73;3.07;;;;;;;22.62;52.50;100371.11;457669;113;922695;-72
2022/09/01 01:58:11;;;;;;;3.08;2.80;;;;;;;22.61;52.45;100369.45;465023;113;923023;-72
2022/09/01 01:59:15;;;;;;;3.00;2.76;;;;;;;22.59;52.44;100373.67;457205;115;922516;-72
2022/09/01 02:00:22;;;;;;;2.47;2.27;;;;;;;22.56;52.49;100366.75;457328;115;922980;-73
2022/09/01 02:01:30;;;;;;;3.44;2.88;;;;;;;22.55;52.48;100369.84;448363;118;930318;-72
2022/09/01 02:02:34;;;;;;;3.23;2.94;;;;;;;22.53;52.74;100367.36;457114;116;922580;-72
2022/09/01 02:03:38;;;;;;;2.62;2.43;;;;;;;22.52;52.79;100365.70;457250;115;922555;-73
2022/09/01 02:04:42;;;;;;;3.61;2.97;;;;;;;22.53;52.89;100364.58;457251;115;922766;-73
2022/09/01 02:05:48;;;;;;;3.55;2.56;;;;;;;22.53;52.92;100364.58;457268;116;923350;-72
2022/09/01 02:06:54;;;;;;;3.29;2.77;;;;;;;22.54;53.00;100368.19;456970;116;922889;-72
2022/09/01 02:08:02;;;;;;;2.83;2.59;;;;;;;22.54;53.04;100363.46;457230;115;922483;-72
2022/09/01 02:09:06;;;;;;;3.41;2.72;;;;;;;22.57;53.08;100373.13;457149;115;922878;-73
2022/09/01 02:10:11;;;;;;;3.05;2.68;;;;;;;22.59;53.09;100370.89;457221;116;922682;-73
2022/09/01 02:11:16;;;;;;;2.94;2.71;;;;;;;22.59;53.07;100370.89;457229;116;930357;-72
2022/09/01 02:12:20;;;;;;;3.49;2.92;;;;;;;22.58;53.08;100369.23;457176;116;922795;-72
2022/09/01 02:13:27;;;;;;;3.95;2.89;;;;;;;22.57;53.18;100373.13;457274;115;922948;-72
2022/09/01 02:14:29;;;;;;;2.87;2.67;;;;;;;22.58;53.26;100366.45;457202;116;922528;-72
2022/09/01 02:15:44;;;;;;;2.91;2.46;;;;;;;22.60;53.29;100372.55;457384;116;923135;-72
2022/09/01 02:16:48;;;;;;;3.55;2.80;;;;;;;22.59;53.42;100370.89;457174;116;922520;-72
2022/09/01 02:17:51;;;;;;;3.35;2.77;;;;;;;22.60;53.41;100369.77;457309;115;922581;-72
2022/09/01 02:18:54;;;;;;;3.84;2.59;;;;;;;22.60;53.42;100369.77;457316;115;930624;-72
2022/09/01 02:19:58;;;;;;;3.98;2.76;;;;;;;22.60;53.46;100370.60;457354;115;922587;-72
2022/09/01 02:21:06;;;;;;;2.94;2.67;;;;;;;22.61;53.42;100374.18;457294;115;923117;-72
2022/09/01 02:22:10;;;;;;;3.17;2.74;;;;;;;22.62;53.43;100373.06;457066;116;930776;-72
2022/09/01 02:23:14;;;;;;;3.21;2.59;;;;;;;22.62;53.41;100375.84;457140;116;922743;-72
2022/09/01 02:24:17;;;;;;;3.19;2.48;;;;;;;22.61;53.33;100366.67;457144;116;928597;-72
2022/09/01 02:25:22;;;;;;;2.90;2.45;;;;;;;22.63;53.41;100369.16;457341;115;922694;-72
2022/09/01 02:26:39;;;;;;;4.29;2.54;;;;;;;22.65;53.40;100375.25;457141;115;923013;-72
2022/09/01 02:27:42;;;;;;;2.61;2.40;;;;;;;22.65;53.08;100372.48;457155;116;922998;-72
2022/09/01 02:28:48;;;;;;;3.26;2.37;;;;;;;22.64;53.11;100368.87;457395;115;922653;-71
2022/09/01 02:29:54;;;;;;;3.87;2.38;;;;;;;22.64;52.99;100368.87;455378;115;923229;-72
2022/09/01 02:31:01;;;;;;;5.78;3.19;;;;;;;22.63;52.72;100372.77;454804;116;922509;-71
2022/09/01 02:32:05;;;;;;;3.10;2.17;;;;;;;22.64;52.67;100366.09;450221;117;922690;-72
2022/09/01 02:33:08;;;;;;;2.95;2.12;;;;;;;22.64;52.67;100371.65;451854;115;922561;-75
2022/09/01 02:34:12;;;;;;;2.98;2.26;;;;;;;22.66;52.52;100371.36;463688;113;922583;-71
2022/09/01 02:35:15;;;;;;;2.62;2.42;;;;;;;22.65;52.39;100378.86;466880;113;922553;-72
2022/09/01 02:36:23;;;;;;;5.80;2.72;;;;;;;22.65;52.40;100378.86;466869;113;922610;-72
2022/09/01 02:37:27;;;;;;;2.26;2.13;;;;;;;22.64;52.33;100385.55;466815;113;923124;-72
2022/09/01 02:38:32;;;;;;;2.58;2.04;;;;;;;22.64;52.17;100379.98;467018;113;922755;-72
2022/09/01 02:39:36;;;;;;;3.17;2.48;;;;;;;22.64;52.05;100384.72;466853;113;923212;-72
2022/09/01 02:40:42;;;;;;;4.78;2.49;;;;;;;22.64;51.98;100384.72;467082;113;922940;-72
2022/09/01 02:41:46;;;;;;;3.07;2.17;;;;;;;22.63;51.86;100383.05;466940;113;922850;-72
2022/09/01 02:42:54;;;;;;;2.42;2.22;;;;;;;22.62;51.83;100382.23;466906;113;922528;-73
2022/09/01 02:43:55;;;;;;;2.52;2.20;;;;;;;22.63;51.82;100385.84;466679;113;923097;-72
2022/09/01 02:44:58;;;;;;;3.64;2.24;;;;;;;22.62;51.71;100385.00;466993;113;923027;-73
2022/09/01 02:46:05;;;;;;;2.42;2.14;;;;;;;22.61;51.65;100385.30;466813;113;922528;-72
2022/09/01 02:47:08;;;;;;;2.68;2.41;;;;;;;22.61;51.76;100379.73;466874;113;922559;-72
2022/09/01 02:48:12;;;;;;;5.40;2.19;;;;;;;22.62;51.84;100375.84;467057;113;922559;-72
2022/09/01 02:49:23;;;;;;;3.02;2.19;;;;;;;22.62;51.84;100379.45;466982;113;922523;-72
2022/09/01 02:50:25;;;;;;;3.49;2.36;;;;;;;22.64;51.86;100381.94;466583;113;930452;-72
2022/09/01 02:51:28;;;;;;;2.84;2.28;;;;;;;22.65;51.87;100383.59;466915;113;923046;-73
2022/09/01 02:52:36;;;;;;;2.14;2.01;;;;;;;22.66;51.77;100383.27;466973;113;922405;-72
2022/09/01 02:53:38;;;;;;;2.61;2.29;;;;;;;22.68;51.70;100375.47;466869;113;922632;-72
2022/09/01 02:54:44;;;;;;;2.71;2.10;;;;;;;22.69;51.68;100379.08;450404;117;923547;-72
2022/09/01 02:55:46;;;;;;;2.92;2.11;;;;;;;22.70;51.73;100381.57;450432;117;922834;-72
2022/09/01 02:56:53;;;;;;;2.50;2.21;;;;;;;22.70;51.72;100373.23;450559;117;922513;-73
2022/09/01 02:57:57;;;;;;;2.66;2.48;;;;;;;22.72;51.66;100372.94;439757;120;922696;-72
2022/09/01 02:59:02;;;;;;;2.19;2.04;;;;;;;22.74;51.62;100379.03;447156;115;922792;-72
2022/09/01 03:00:19;;;;;;;2.54;2.32;;;;;;;22.76;51.63;100376.80;458204;115;923149;-72
2022/09/01 03:01:20;;;;;;;3.46;2.63;;;;;;;22.77;51.61;100384.81;457245;115;930390;-72
2022/09/01 03:02:27;;;;;;;2.88;2.38;;;;;;;22.79;51.48;100376.18;458151;115;922524;-72
2022/09/01 03:03:29;;;;;;;2.42;2.19;;;;;;;22.80;51.37;100375.06;458151;115;922506;-73
2022/09/01 03:04:34;;;;;;;2.66;2.27;;;;;;;22.78;51.25;100386.47;458304;115;922778;-72
2022/09/01 03:05:38;;;;;;;2.91;2.27;;;;;;;22.77;51.27;100379.25;458206;115;922938;-73
2022/09/01 03:06:42;;;;;;;3.54;2.35;;;;;;;22.77;51.29;100376.47;458273;115;922802;-73
2022/09/01 03:07:45;;;;;;;4.65;2.61;;;;;;;22.77;51.23;100382.03;458201;115;922578;-72
2022/09/01 03:08:49;;;;;;;2.22;2.02;;;;;;;22.78;51.22;100374.52;458278;115;930436;-73
2022/09/01 03:09:52;;;;;;;2.35;2.15;;;;;;;22.77;51.18;100378.45;458251;115;923506;-73
2022/09/01 03:11:00;;;;;;;2.20;1.94;;;;;;;22.76;51.20;100379.58;458363;115;923012;-73
2022/09/01 03:12:00;;;;;;;2.52;2.08;;;;;;;22.76;51.22;100383.18;457989;115;923041;-73
2022/09/01 03:13:07;;;;;;;2.71;2.22;;;;;;;22.78;51.24;100380.91;458211;115;922492;-72
2022/09/01 03:14:11;;;;;;;2.84;2.59;;;;;;;22.77;51.23;100387.59;458031;115;927960;-73
2022/09/01 03:15:14;;;;;;;3.44;2.25;;;;;;;22.78;51.15;100386.47;456574;115;923310;-73
2022/09/01 03:16:21;;;;;;;2.81;2.26;;;;;;;22.76;51.14;100388.74;450293;117;922544;-73
2022/09/01 03:17:24;;;;;;;2.47;2.16;;;;;;;22.76;51.18;100385.97;450258;117;922621;-72
2022/09/01 03:18:27;;;;;;;2.42;2.22;;;;;;;22.75;51.13;100387.09;450498;117;922974;-72
2022/09/01 03:19:34;;;;;;;2.29;2.09;;;;;;;22.76;51.15;100385.97;450472;117;922918;-72
2022/09/01 03:20:42;;;;;;;2.51;2.20;;;;;;;22.74;51.19;100377.09;450288;117;922632;-72
2022/09/01 03:21:45;;;;;;;3.88;2.23;;;;;;;22.72;51.17;100376.55;450267;117;923298;-72
2022/09/01 03:22:51;;;;;;;3.72;2.57;;;;;;;22.71;51.17;100383.26;450283;117;923160;-72
2022/09/01 03:23:56;;;;;;;3.82;2.29;;;;;;;22.72;51.27;100378.50;450261;117;922980;-72
2022/09/01 03:25:00;;;;;;;4.01;2.48;;;;;;;22.71;51.23;100383.26;450313;117;922521;-72
2022/09/01 03:26:04;;;;;;;3.29;2.72;;;;;;;22.72;51.32;100381.28;450364;117;922895;-72
2022/09/01 03:27:10;;;;;;;6.94;2.55;;;;;;;22.71;51.25;100383.26;450373;117;922586;-72
2022/09/01 03:28:13;;;;;;;2.32;2.12;;;;;;;22.71;51.27;100374.92;450242;117;923201;-72
2022/09/01 03:29:17;;;;;;;2.82;2.31;;;;;;;22.71;51.32;100383.26;445391;119;922971;-72
2022/09/01 03:30:21;;;;;;;2.44;2.21;;;;;;;22.70;51.30;100378.79;452497;115;922600;-73
2022/09/01 03:31:27;;;;;;;2.44;2.10;;;;;;;22.71;51.30;100382.40;451386;117;922868;-73
2022/09/01 03:32:32;;;;;;;2.59;2.28;;;;;;;22.70;51.36;100380.73;444770;117;922614;-72
2022/09/01 03:33:36;;;;;;;2.83;2.31;;;;;;;22.68;51.34;100386.59;452062;115;922594;-72
2022/09/01 03:34:41;;;;;;;3.92;2.05;;;;;;;22.68;51.23;100385.76;461599;115;922922;-72
2022/09/01 03:35:46;;;;;;;2.18;2.02;;;;;;;22.65;51.26;100389.16;461714;115;922733;-73
2022/09/01 03:36:50;;;;;;;2.82;2.47;;;;;;;22.63;51.39;100380.27;461691;115;922613;-73
2022/09/01 03:38:03;;;;;;;2.64;2.32;;;;;;;22.61;51.45;100386.13;461597;115;922687;-72
2022/09/01 03:39:08;;;;;;;2.49;2.28;;;;;;;22.61;51.47;100397.23;461574;115;922579;-72
2022/09/01 03:40:14;;;;;;;3.04;2.19;;;;;;;22.61;51.59;100394.46;461109;115;922877;-75
2022/09/01 03:41:21;;;;;;;2.94;2.03;;;;;;;22.62;51.64;100400.85;461835;115;923100;-73
2022/09/01 03:42:28;;;;;;;3.08;2.18;;;;;;;22.62;51.62;100395.30;461562;115;923287;-73
2022/09/01 03:43:31;;;;;;;3.54;2.23;;;;;;;22.62;51.60;100401.68;461463;115;922923;-72
2022/09/01 03:44:39;;;;;;;3.78;2.53;;;;;;;22.62;51.53;100400.85;461437;115;923073;-73
2022/09/01 03:45:42;;;;;;;2.47;2.07;;;;;;;22.62;51.56;100406.41;461636;115;922595;-73
2022/09/01 03:46:45;;;;;;;2.22;1.90;;;;;;;22.62;51.64;100404.46;461768;115;922962;-73
2022/09/01 03:47:49;;;;;;;3.83;2.26;;;;;;;22.62;51.64;100398.91;461838;115;923084;-73
2022/09/01 03:48:59;;;;;;;2.31;2.11;;;;;;;22.62;51.56;100409.19;461818;115;922512;-73
2022/09/01 03:50:02;;;;;;;2.19;2.01;;;;;;;22.61;51.59;100401.97;461273;115;922534;-72
2022/09/01 03:51:06;;;;;;;4.38;2.04;;;;;;;22.61;51.58;100402.80;458388;115;923014;-72
2022/09/01 03:52:10;;;;;;;3.71;2.49;;;;;;;22.61;51.51;100399.19;451333;117;923242;-73
2022/09/01 03:53:18;;;;;;;3.94;2.06;;;;;;;22.60;51.46;100403.13;451588;115;923141;-73
2022/09/01 03:54:29;;;;;;;3.99;1.92;;;;;;;22.59;51.42;100396.73;458069;115;930417;-72
2022/09/01 03:55:33;;;;;;;1.94;1.82;;;;;;;22.59;51.47;100393.95;457929;115;922521;-73
2022/09/01 03:56:40;;;;;;;2.15;1.96;;;;;;;22.60;51.42;100401.17;458141;115;923067;-74
2022/09/01 03:57:42;;;;;;;3.14;2.29;;;;;;;22.61;51.45;100396.41;458136;115;922736;-73
2022/09/01 03:58:46;;;;;;;3.28;2.42;;;;;;;22.62;51.44;100400.85;457581;115;922654;-71
2022/09/01 03:59:49;;;;;;;3.67;2.01;;;;;;;22.62;51.44;100400.85;457046;116;923063;-74
2022/09/01 04:00:59;;;;;;;3.39;2.10;;;;;;;22.63;51.45;100402.51;456746;116;930302;-72
2022/09/01 04:02:03;;;;;;;3.57;2.45;;;;;;;22.64;51.47;100402.22;456912;116;922510;-72
2022/09/01 04:03:08;;;;;;;3.24;2.14;;;;;;;22.65;51.49;100406.66;457035;116;922928;-72
2022/09/01 04:04:12;;;;;;;2.99;2.71;;;;;;;22.66;51.50;100408.28;456928;115;922561;-72
2022/09/01 04:05:19;;;;;;;3.56;2.55;;;;;;;22.67;51.49;100396.05;456974;116;922663;-72
2022/09/01 04:06:23;;;;;;;3.51;2.02;;;;;;;22.69;51.49;100404.92;456830;116;930513;-72
2022/09/01 04:07:27;;;;;;;4.63;2.77;;;;;;;22.71;51.46;100407.41;450897;117;922617;-72
2022/09/01 04:08:30;;;;;;;2.36;2.15;;;;;;;22.71;51.47;100402.72;451119;116;930692;-72
2022/09/01 04:09:36;;;;;;;3.06;2.40;;;;;;;22.73;51.48;100405.17;456977;116;922640;-71
2022/09/01 04:10:48;;;;;;;2.85;2.30;;;;;;;22.74;51.44;100399.33;457047;116;930301;-72
2022/09/01 04:11:53;;;;;;;2.88;2.26;;;;;;;22.75;51.42;100402.94;456434;116;922599;-72
2022/09/01 04:12:59;;;;;;;4.24;2.17;;;;;;;22.76;51.41;100397.08;450875;117;923138;-73
2022/09/01 04:14:02;;;;;;;4.29;2.12;;;;;;;22.77;51.37;100401.48;450878;116;930596;-72
2022/09/01 04:15:08;;;;;;;2.34;1.94;;;;;;;22.80;51.44;100397.30;455994;116;922583;-73
2022/09/01 04:19:14;;;;;;;4.52;2.37;;;;;;;22.87;51.30;100397.75;450196;117;922641;-73
2022/09/01 04:20:08;;;;;;;2.23;1.88;;;;;;;22.86;51.26;100396.09;447590;117;922918;-73
2022/09/01 04:21:12;;;;;;;3.35;2.11;;;;;;;22.85;51.24;100395.27;441687;120;922701;-72
2022/09/01 04:22:16;;;;;;;2.18;1.81;;;;;;;22.83;51.18;100394.73;442226;117;930995;-73
2022/09/01 04:23:25;;;;;;;2.06;1.82;;;;;;;22.83;51.27;100389.17;450383;117;923080;-73
2022/09/01 04:24:31;;;;;;;3.44;1.53;;;;;;;22.83;51.24;100391.95;446996;118;923147;-74
2022/09/01 04:25:36;;;;;;;2.96;1.64;;;;;;;22.81;51.36;100394.22;447382;117;923046;-73
2022/09/01 04:26:41;;;;;;;3.33;1.88;;;;;;;22.82;51.38;100397.84;450283;117;922550;-73
2022/09/01 04:27:46;;;;;;;2.35;2.03;;;;;;;22.82;51.44;100390.30;450274;117;923058;-73
2022/09/01 04:28:49;;;;;;;1.92;1.79;;;;;;;22.83;51.50;100397.51;450320;117;922590;-72
2022/09/01 04:29:52;;;;;;;3.60;2.28;;;;;;;22.83;51.47;100397.51;452453;116;922635;-73
2022/09/01 04:30:58;;;;;;;2.99;1.92;;;;;;;22.83;51.47;100393.91;455981;115;922556;-72
2022/09/01 04:32:04;;;;;;;2.28;2.08;;;;;;;22.83;51.55;100391.12;458270;115;922976;-72
2022/09/01 04:33:09;;;;;;;2.26;1.98;;;;;;;22.84;51.60;100392.78;457906;115;930362;-72
2022/09/01 04:34:12;;;;;;;2.45;2.14;;;;;;;22.85;51.63;100398.05;461522;114;922628;-73
2022/09/01 04:35:17;;;;;;;3.45;2.04;;;;;;;22.88;51.69;100391.05;464401;114;930257;-73
2022/09/01 04:36:29;;;;;;;3.49;1.84;;;;;;;22.88;51.66;100394.66;464544;114;922902;-72
2022/09/01 04:37:37;;;;;;;2.37;1.91;;;;;;;22.92;51.70;100386.55;464530;114;922942;-72
2022/09/01 04:38:38;;;;;;;2.32;2.07;;;;;;;22.96;51.71;100389.55;464258;114;922467;-72
2022/09/01 04:39:47;;;;;;;2.45;2.08;;;;;;;22.98;51.68;100388.13;464768;114;922562;-72
2022/09/01 04:40:48;;;;;;;3.04;1.88;;;;;;;23.01;51.62;100395.03;464170;114;922520;-72
2022/09/01 04:41:51;;;;;;;3.17;1.82;;;;;;;23.02;51.57;100386.39;464581;114;922476;-73
2022/09/01 04:42:54;;;;;;;3.49;2.14;;;;;;;23.06;51.57;100383.83;464706;114;922548;-71
2022/09/01 04:44:03;;;;;;;3.33;2.52;;;;;;;23.09;51.59;100383.23;464653;114;922583;-73
2022/09/01 04:45:09;;;;;;;2.43;2.21;;;;;;;23.12;51.50;100379.84;456215;116;922621;-73
2022/09/01 04:46:15;;;;;;;4.56;1.83;;;;;;;23.17;51.51;100390.88;457135;114;922613;-72
2022/09/01 04:47:18;;;;;;;3.71;2.33;;;;;;;23.21;51.45;100389.16;462366;114;922533;-72
2022/09/01 04:48:21;;;;;;;2.33;1.98;;;;;;;23.26;51.41;100391.86;462624;114;922931;-73
2022/09/01 04:49:25;;;;;;;2.18;1.83;;;;;;;23.30;51.27;100392.90;462686;114;923207;-72
2022/09/01 04:50:36;;;;;;;2.43;2.23;;;;;;;23.34;51.15;100398.67;462655;114;930341;-72
2022/09/01 04:51:40;;;;;;;3.11;2.01;;;;;;;23.36;51.01;100397.25;459592;114;922869;-72
2022/09/01 04:52:44;;;;;;;2.35;2.14;;;;;;;23.39;50.90;100402.19;462539;114;922995;-72
2022/09/01 04:53:49;;;;;;;3.54;2.31;;;;;;;23.40;50.86;100398.28;461155;114;923267;-72
2022/09/01 04:54:53;;;;;;;3.16;2.17;;;;;;;23.43;50.84;100396.86;462673;114;922554;-72
2022/09/01 04:56:03;;;;;;;2.39;2.02;;;;;;;23.45;50.84;100406.55;462669;114;922936;-72
2022/09/01 04:57:05;;;;;;;2.21;1.71;;;;;;;23.47;50.81;100398.76;462526;114;930485;-72
2022/09/01 04:58:16;;;;;;;3.11;1.97;;;;;;;23.50;50.79;100400.92;462009;114;922812;-72
2022/09/01 04:59:21;;;;;;;2.52;1.96;;;;;;;23.52;50.65;100407.02;456328;116;922683;-72
2022/09/01 05:00:31;;;;;;;3.98;2.38;;;;;;;23.55;50.48;100397.22;456350;115;922570;-72
2022/09/01 05:01:42;;;;;;;3.16;2.44;;;;;;;23.54;50.43;100393.60;456380;115;922890;-72
2022/09/01 05:02:40;;;;;;;2.66;2.46;;;;;;;23.55;50.41;100400.83;456435;115;922533;-72
2022/09/01 05:03:44;;;;;;;4.34;2.44;;;;;;;23.56;50.38;100398.88;456487;115;922599;-73
2022/09/01 05:04:53;;;;;;;2.58;2.36;;;;;;;23.56;50.38;100401.66;456891;115;922551;-72
2022/09/01 05:05:59;;;;;;;2.86;2.37;;;;;;;23.56;50.35;100398.88;456468;116;922919;-72
2022/09/01 05:07:04;;;;;;;3.40;2.13;;;;;;;23.55;50.44;100400.83;456304;116;922996;-72